Time;durP1;ratioP1;P1;durP2;ratioP2;P2;SDS_P1;SDS_P2;PMS_P1;PMS_P2;Temp;Humidity;BMP_temperature;BMP_pressure;BME280_temperature;BME280_humidity;BME280_pressure;Samples;Min_cycle;Max_cycle;Signal;HPM_P1;HPM_P2
2022/03/10 00:00:14;;;;;;;1.52;1.42;;;;;;;-13.26;51.76;100808.91;5057317;28;20072;-84
2022/03/10 00:02:42;;;;;;;1.00;1.00;;;;;;;-13.29;51.76;100809.03;5054506;28;20106;-84
2022/03/10 00:05:15;;;;;;;1.20;1.17;;;;;;;-13.31;51.77;100816.03;5037923;28;20049;-84
2022/03/10 00:07:43;;;;;;;1.27;1.20;;;;;;;-13.34;51.83;100814.38;5055413;28;20593;-84
2022/03/10 00:10:10;;;;;;;1.50;1.40;;;;;;;-13.33;51.95;100816.06;5053581;28;20107;-84
2022/03/10 00:12:50;;;;;;;1.30;1.20;;;;;;;-13.33;51.90;100813.47;5035486;28;20048;-84
2022/03/10 00:15:20;;;;;;;1.00;1.00;;;;;;;-13.37;51.96;100813.59;5053653;28;20049;-84
2022/03/10 00:17:47;;;;;;;1.10;1.10;;;;;;;-13.42;52.11;100812.91;5034932;28;20059;-84
2022/03/10 00:20:14;;;;;;;0.80;0.80;;;;;;;-13.46;52.31;100813.91;5053820;28;20396;-85
2022/03/10 00:22:51;;;;;;;0.93;0.93;;;;;;;-13.44;52.31;100812.97;5053173;28;20531;-86
2022/03/10 00:25:18;;;;;;;1.30;1.20;;;;;;;-13.47;52.32;100812.19;5053054;28;20049;-85
2022/03/10 00:27:47;;;;;;;1.30;1.20;;;;;;;-13.48;52.23;100821.75;5052464;28;20111;-85
2022/03/10 00:30:15;;;;;;;1.27;1.20;;;;;;;-13.47;52.36;100822.59;5018931;28;20045;-84
2022/03/10 00:32:50;;;;;;;1.50;1.40;;;;;;;-13.53;52.39;100826.22;5053724;28;20045;-84
2022/03/10 00:35:19;;;;;;;1.30;1.20;;;;;;;-13.50;52.30;100827.88;5053482;28;20049;-84
2022/03/10 00:37:55;;;;;;;1.48;1.38;;;;;;;-13.50;52.22;100827.88;5019190;28;20053;-85
2022/03/10 00:40:24;;;;;;;1.40;1.30;;;;;;;-13.48;52.17;100820.91;5018618;28;20053;-85
2022/03/10 00:42:51;;;;;;;1.50;1.40;;;;;;;-13.57;52.09;100820.28;5054918;28;20198;-85
2022/03/10 00:45:18;;;;;;;1.27;1.20;;;;;;;-13.56;52.20;100821.97;5054231;28;20060;-86
2022/03/10 00:47:46;;;;;;;1.02;1.02;;;;;;;-13.57;52.40;100832.41;5053783;28;20094;-84
2022/03/10 00:50:13;;;;;;;1.40;1.30;;;;;;;-13.55;52.21;100834.06;5052639;28;20478;-86
2022/03/10 00:52:45;;;;;;;1.10;1.10;;;;;;;-13.55;52.00;100833.22;5052242;28;20467;-83
2022/03/10 00:55:15;;;;;;;1.30;1.20;;;;;;;-13.57;52.02;100835.00;5052987;28;20559;-84
2022/03/10 00:57:42;;;;;;;1.00;1.00;;;;;;;-13.59;52.23;100842.00;5034799;28;20090;-85
2022/03/10 01:00:10;;;;;;;0.90;0.90;;;;;;;-13.59;52.25;100837.66;5052320;28;20470;-85
2022/03/10 01:02:37;;;;;;;1.10;1.10;;;;;;;-13.61;52.51;100841.19;5051815;28;20403;-85
2022/03/10 01:05:06;;;;;;;1.40;1.30;;;;;;;-13.64;52.43;100842.16;5052317;28;20041;-84
2022/03/10 01:07:34;;;;;;;1.35;1.25;;;;;;;-13.69;52.51;100850.97;5052191;28;20088;-85
2022/03/10 01:10:03;;;;;;;1.25;1.17;;;;;;;-13.73;52.76;100847.59;5052642;28;20045;-84
2022/03/10 01:12:31;;;;;;;1.30;1.20;;;;;;;-13.75;52.86;100846.78;5054945;28;20045;-85
2022/03/10 01:14:58;;;;;;;1.17;1.17;;;;;;;-13.77;52.96;100851.19;5065107;28;20053;-85
2022/03/10 01:17:25;;;;;;;1.10;1.10;;;;;;;-13.80;52.96;100854.75;5043421;28;20507;-86
2022/03/10 01:19:52;;;;;;;1.08;1.08;;;;;;;-13.84;53.15;100860.06;5017960;28;20400;-84
2022/03/10 01:22:19;;;;;;;1.30;1.20;;;;;;;-13.88;52.99;100848.91;5034840;28;20045;-85
2022/03/10 01:24:47;;;;;;;1.08;1.08;;;;;;;-13.83;53.16;100865.19;5038157;28;20119;-85
2022/03/10 01:27:15;;;;;;;1.27;1.20;;;;;;;-13.86;53.08;100856.66;5074512;28;20117;-85
2022/03/10 01:29:43;;;;;;;1.23;1.20;;;;;;;-13.83;52.94;100861.75;5052942;28;20072;-87
2022/03/10 01:32:11;;;;;;;1.10;1.10;;;;;;;-13.86;53.04;100860.09;5034209;28;20052;-85
2022/03/10 01:34:39;;;;;;;1.10;1.10;;;;;;;-13.90;53.01;100862.81;5052503;28;20504;-85
2022/03/10 01:37:06;;;;;;;0.98;0.98;;;;;;;-13.91;52.94;100861.97;5052195;28;20052;-85
2022/03/10 01:39:33;;;;;;;1.17;1.15;;;;;;;-13.92;52.86;100862.88;5051462;28;20079;-86
2022/03/10 01:42:01;;;;;;;0.90;0.90;;;;;;;-13.90;53.09;100871.44;5034033;28;20128;-85
2022/03/10 01:44:28;;;;;;;1.00;1.00;;;;;;;-13.86;53.15;100867.88;5051724;28;20052;-85
2022/03/10 01:46:55;;;;;;;1.30;1.20;;;;;;;-13.84;53.03;100865.25;5051457;28;20135;-86
2022/03/10 01:49:23;;;;;;;1.35;1.25;;;;;;;-13.85;53.04;100871.31;5033627;28;20637;-85
2022/03/10 01:51:51;;;;;;;1.23;1.17;;;;;;;-13.87;53.19;100867.91;5033833;28;20052;-85
2022/03/10 01:54:19;;;;;;;1.35;1.25;;;;;;;-13.90;53.40;100878.38;5051680;28;20040;-86
2022/03/10 01:56:47;;;;;;;1.15;1.13;;;;;;;-13.92;53.37;100878.44;5051337;28;20053;-85
2022/03/10 01:59:14;;;;;;;0.98;0.98;;;;;;;-13.80;52.87;100879.81;5017490;28;20098;-85
2022/03/10 02:01:41;;;;;;;1.27;1.17;;;;;;;-13.81;52.79;100881.56;5033462;28;20037;-85
2022/03/10 02:04:09;;;;;;;1.48;1.38;;;;;;;-13.81;52.75;100889.38;5052181;28;20098;-86
2022/03/10 02:06:36;;;;;;;1.40;1.30;;;;;;;-13.85;53.03;100892.94;5051756;28;20068;-85
2022/03/10 02:11:50;;;;;;;1.10;1.10;;;;;;;-13.92;53.05;100894.03;5051181;28;20077;-85
2022/03/10 02:17:22;;;;;;;1.00;1.00;;;;;;;-13.99;53.38;100905.47;5034418;28;20573;-85
2022/03/10 02:19:52;;;;;;;1.00;1.00;;;;;;;-14.05;53.61;100901.31;5055405;28;20044;-84
2022/03/10 02:22:20;;;;;;;0.93;0.93;;;;;;;-14.00;53.66;100901.16;5037756;28;20396;-84
2022/03/10 02:24:48;;;;;;;1.27;1.20;;;;;;;-14.02;53.61;100909.00;5055006;28;20037;-85
2022/03/10 02:27:22;;;;;;;1.35;1.25;;;;;;;-14.00;53.72;100909.81;5055203;28;20122;-85
2022/03/10 02:30:02;;;;;;;1.47;1.37;;;;;;;-14.07;53.58;100910.88;5061286;28;20045;-86
2022/03/10 02:32:29;;;;;;;0.90;0.90;;;;;;;-14.08;53.78;100916.94;5058540;28;20283;-85
2022/03/10 02:34:56;;;;;;;1.27;1.20;;;;;;;-14.12;53.84;100920.53;5062108;28;20139;-85
2022/03/10 02:37:24;;;;;;;1.13;1.13;;;;;;;-14.20;54.01;100915.53;5057796;28;20122;-85
2022/03/10 02:39:51;;;;;;;1.10;1.10;;;;;;;-14.23;54.06;100918.22;5054898;28;20139;-85
2022/03/10 02:42:19;;;;;;;1.10;1.10;;;;;;;-14.24;54.13;100924.28;5037425;28;20049;-85
2022/03/10 02:44:47;;;;;;;1.30;1.20;;;;;;;-14.24;54.26;100936.41;5054768;28;20228;-86
2022/03/10 02:47:15;;;;;;;1.40;1.30;;;;;;;-14.27;54.42;100923.53;5054850;28;20410;-85
2022/03/10 02:49:43;;;;;;;1.10;1.10;;;;;;;-14.27;54.36;100928.72;5054405;28;20510;-84
2022/03/10 02:52:11;;;;;;;1.10;1.10;;;;;;;-14.28;54.24;100927.88;5055059;28;20072;-84
2022/03/10 02:54:43;;;;;;;1.42;1.33;;;;;;;-14.30;54.55;100926.19;5054714;28;20055;-85
2022/03/10 02:57:11;;;;;;;1.38;1.27;;;;;;;-14.38;54.53;100920.34;5054977;28;20544;-84
2022/03/10 02:59:38;;;;;;;0.95;0.95;;;;;;;-14.44;54.80;100914.44;5054755;28;20489;-85
2022/03/10 03:02:05;;;;;;;1.10;1.10;;;;;;;-14.43;54.96;100918.75;5037391;28;20045;-85
2022/03/10 03:04:33;;;;;;;0.90;0.90;;;;;;;-14.41;54.97;100932.50;5055260;28;20127;-87
2022/03/10 03:07:00;;;;;;;0.90;0.90;;;;;;;-14.43;54.98;100934.31;5055064;28;20588;-85
2022/03/10 03:09:28;;;;;;;1.02;1.02;;;;;;;-14.43;54.95;100933.41;5055161;28;20056;-84
2022/03/10 03:11:55;;;;;;;1.00;1.00;;;;;;;-14.45;55.07;100938.66;5054683;28;20569;-86
2022/03/10 03:14:23;;;;;;;1.33;1.23;;;;;;;-14.50;55.04;100935.34;5037743;28;20122;-85
2022/03/10 03:16:57;;;;;;;1.10;1.10;;;;;;;-14.56;55.14;100945.03;5054589;28;20045;-84
2022/03/10 03:19:25;;;;;;;1.48;1.38;;;;;;;-14.57;55.38;100945.94;5020731;28;20061;-85
2022/03/10 03:21:52;;;;;;;1.30;1.20;;;;;;;-14.51;55.47;100950.94;5054573;28;20045;-87
2022/03/10 03:24:20;;;;;;;0.95;0.95;;;;;;;-14.55;55.39;100942.41;5020500;28;20065;-85
2022/03/10 03:26:48;;;;;;;0.95;0.95;;;;;;;-14.53;55.41;100955.31;5054620;28;20483;-85
2022/03/10 03:29:16;;;;;;;1.40;1.30;;;;;;;-14.46;55.46;100954.25;5054255;28;20077;-85
2022/03/10 03:31:43;;;;;;;1.02;1.02;;;;;;;-14.49;55.26;100950.00;5037300;28;20073;-85
2022/03/10 03:34:10;;;;;;;1.45;1.35;;;;;;;-14.53;55.41;100951.00;5054504;28;20056;-85
2022/03/10 03:36:42;;;;;;;1.05;1.05;;;;;;;-14.63;55.52;100952.13;5054643;28;20079;-85
2022/03/10 03:39:11;;;;;;;1.30;1.20;;;;;;;-14.62;56.00;100956.41;5054709;28;20049;-86
2022/03/10 03:41:38;;;;;;;1.10;1.10;;;;;;;-14.54;55.83;100959.66;5055050;28;20083;-86
2022/03/10 03:44:08;;;;;;;1.02;1.02;;;;;;;-14.58;55.70;100960.66;5036745;28;20053;-86
2022/03/10 03:46:36;;;;;;;1.02;1.02;;;;;;;-14.59;55.50;100964.13;5054469;28;20057;-86
2022/03/10 03:49:09;;;;;;;1.20;1.20;;;;;;;-14.60;55.91;100966.75;5020746;28;20053;-85
2022/03/10 03:51:37;;;;;;;1.10;1.10;;;;;;;-14.56;55.77;100974.41;5053928;28;20053;-85
2022/03/10 03:54:05;;;;;;;0.98;0.98;;;;;;;-14.50;55.59;100973.41;5053997;28;20148;-85
2022/03/10 03:56:34;;;;;;;1.05;1.05;;;;;;;-14.50;55.56;100974.25;5020200;28;20045;-84
2022/03/10 03:59:02;;;;;;;1.40;1.30;;;;;;;-14.58;55.63;100983.97;5035790;28;20507;-84
2022/03/10 04:01:29;;;;;;;1.00;1.00;;;;;;;-14.63;55.80;100989.28;5053466;28;20048;-85
2022/03/10 04:03:56;;;;;;;1.05;1.05;;;;;;;-14.64;55.75;100990.16;5036311;28;20068;-86
2022/03/10 04:06:24;;;;;;;1.05;1.05;;;;;;;-14.70;55.78;100986.88;5053600;28;20119;-86
2022/03/10 04:08:51;;;;;;;1.20;1.20;;;;;;;-14.69;55.98;100993.75;5019923;28;20053;-85
2022/03/10 04:11:18;;;;;;;1.10;1.10;;;;;;;-14.66;56.13;100989.34;5053698;28;20068;-85
2022/03/10 04:13:46;;;;;;;1.17;1.10;;;;;;;-14.60;56.16;100993.53;5035692;28;20045;-84
2022/03/10 04:16:17;;;;;;;1.58;1.48;;;;;;;-14.56;56.02;100995.16;5034953;28;20049;-86
2022/03/10 04:18:44;;;;;;;1.02;1.00;;;;;;;-14.49;55.85;100994.09;5034027;28;20053;-85
2022/03/10 04:21:11;;;;;;;1.20;1.20;;;;;;;-14.48;55.58;100997.53;5035417;28;20075;-85
2022/03/10 04:23:38;;;;;;;1.25;1.17;;;;;;;-14.46;55.45;101000.94;5050783;28;20130;-85
2022/03/10 04:26:05;;;;;;;1.27;1.20;;;;;;;-14.53;55.51;101010.66;5033323;28;20045;-85
2022/03/10 04:28:33;;;;;;;1.17;1.17;;;;;;;-14.49;55.59;101014.81;5043102;28;20045;-85
2022/03/10 04:31:01;;;;;;;1.00;1.00;;;;;;;-14.38;55.08;101030.13;5052672;28;20388;-86
2022/03/10 04:33:28;;;;;;;1.13;1.05;;;;;;;-14.37;55.13;101015.44;5052895;28;20132;-85
2022/03/10 04:35:56;;;;;;;1.13;1.13;;;;;;;-14.27;54.89;101022.94;5034644;28;20064;-85
2022/03/10 04:38:24;;;;;;;1.33;1.23;;;;;;;-14.21;54.53;101027.13;5034655;28;20049;-85
2022/03/10 04:40:52;;;;;;;1.10;1.10;;;;;;;-14.21;54.54;101021.94;5051775;28;20048;-86
2022/03/10 04:43:19;;;;;;;1.45;1.35;;;;;;;-14.15;54.54;101031.31;5034449;28;20052;-85
2022/03/10 04:45:47;;;;;;;1.25;1.20;;;;;;;-14.10;54.50;101026.84;5034681;28;20052;-86
2022/03/10 04:48:14;;;;;;;1.02;1.02;;;;;;;-14.01;54.28;101029.22;5030477;28;20096;-85
2022/03/10 04:50:41;;;;;;;1.40;1.30;;;;;;;-13.93;54.15;101036.81;5021675;28;20046;-85
2022/03/10 04:53:09;;;;;;;1.00;1.00;;;;;;;-13.85;53.81;101029.66;5057484;28;20049;-85
2022/03/10 04:55:36;;;;;;;1.05;1.05;;;;;;;-13.80;53.68;101033.88;5054927;28;20063;-86
2022/03/10 04:58:04;;;;;;;1.40;1.30;;;;;;;-13.72;53.42;101035.38;5050534;28;20511;-86
2022/03/10 05:00:33;;;;;;;0.93;0.93;;;;;;;-13.66;52.88;101037.84;5039765;28;20080;-86
2022/03/10 05:03:00;;;;;;;1.30;1.20;;;;;;;-13.62;52.93;101042.91;4673487;28;9999762;-85
2022/03/10 05:05:27;;;;;;;1.35;1.25;;;;;;;-13.55;52.71;101036.63;5029901;28;20100;-85
2022/03/10 05:07:55;;;;;;;1.45;1.35;;;;;;;-13.48;52.45;101026.09;5004927;28;20091;-86
2022/03/10 05:10:22;;;;;;;1.40;1.30;;;;;;;-13.41;52.19;101040.63;5041547;28;20072;-87
2022/03/10 05:12:54;;;;;;;1.30;1.20;;;;;;;-13.30;52.20;101046.34;5054441;28;20056;-85
2022/03/10 05:15:23;;;;;;;1.10;1.10;;;;;;;-13.24;51.80;101047.88;5055914;28;20083;-85
2022/03/10 05:17:52;;;;;;;1.30;1.20;;;;;;;-13.16;51.76;101044.19;5055731;28;20045;-85
2022/03/10 05:20:19;;;;;;;1.15;1.13;;;;;;;-13.04;51.39;101047.31;5058585;28;20033;-90
2022/03/10 05:22:50;;;;;;;1.23;1.13;;;;;;;-12.98;51.13;101045.41;5068250;28;20045;-84
2022/03/10 05:25:18;;;;;;;1.38;1.27;;;;;;;-12.91;50.93;101046.94;5055337;28;20069;-87
2022/03/10 05:28:11;;;;;;;1.60;1.50;;;;;;;-12.78;50.63;101056.97;5066975;28;20036;-91
2022/03/10 05:30:38;;;;;;;1.10;1.10;;;;;;;-12.71;50.36;101056.72;5058582;28;20057;-91
2022/03/10 05:33:30;;;;;;;1.20;1.20;;;;;;;-12.62;50.21;101063.41;5075118;28;20069;-86
2022/03/10 05:35:57;;;;;;;1.50;1.40;;;;;;;-12.55;49.81;101058.88;5054745;28;20045;-86
2022/03/10 05:38:24;;;;;;;1.45;1.35;;;;;;;-12.46;49.82;101074.16;4999178;28;20126;-84
2022/03/10 05:40:52;;;;;;;1.33;1.23;;;;;;;-12.35;49.33;101072.09;5042646;28;20049;-82
2022/03/10 05:43:20;;;;;;;1.30;1.20;;;;;;;-12.25;49.39;101077.88;5035939;28;20067;-84
2022/03/10 05:45:47;;;;;;;1.40;1.30;;;;;;;-12.10;49.05;101076.50;5044043;28;20056;-84
2022/03/10 05:48:14;;;;;;;1.10;1.10;;;;;;;-11.96;48.71;101079.50;5030935;28;20098;-84
2022/03/10 05:50:43;;;;;;;1.30;1.20;;;;;;;-11.91;48.32;101080.22;5043384;28;20160;-86
2022/03/10 05:53:11;;;;;;;1.27;1.20;;;;;;;-11.84;48.41;101086.03;5042585;28;20049;-86
2022/03/10 05:55:38;;;;;;;1.30;1.20;;;;;;;-11.78;48.25;101094.47;5052021;28;20056;-87
2022/03/10 05:58:05;;;;;;;1.52;1.42;;;;;;;-11.66;48.20;101093.22;5050449;28;20095;-87
2022/03/10 06:00:34;;;;;;;1.25;1.20;;;;;;;-11.53;47.50;101101.47;5021564;28;20053;-83
2022/03/10 06:03:01;;;;;;;1.40;1.30;;;;;;;-11.44;47.29;101102.91;5038641;28;20053;-87
2022/03/10 06:05:29;;;;;;;1.42;1.33;;;;;;;-11.30;47.17;101092.84;5044659;28;20038;-83
2022/03/10 06:07:55;;;;;;;1.20;1.20;;;;;;;-11.14;46.74;101091.41;5042407;28;20044;-83
2022/03/10 06:10:23;;;;;;;1.67;1.58;;;;;;;-10.98;46.42;101102.13;5047237;28;20053;-82
2022/03/10 06:12:50;;;;;;;1.60;1.50;;;;;;;-10.83;46.11;101100.72;5040683;28;20087;-84
2022/03/10 06:15:17;;;;;;;1.35;1.25;;;;;;;-10.67;45.97;101105.38;5023087;28;20048;-84
2022/03/10 06:17:45;;;;;;;1.50;1.40;;;;;;;-10.63;44.92;101096.50;5022804;28;20558;-84
2022/03/10 06:20:12;;;;;;;1.40;1.30;;;;;;;-10.55;45.15;101103.13;5030619;28;20139;-85
2022/03/10 06:22:39;;;;;;;1.52;1.42;;;;;;;-10.38;44.97;101104.22;5029077;28;20129;-84
2022/03/10 06:25:09;;;;;;;1.48;1.38;;;;;;;-10.28;44.71;101100.34;5047803;28;20076;-84
2022/03/10 06:27:37;;;;;;;1.55;1.45;;;;;;;-10.13;44.62;101091.88;5052106;28;20045;-85
2022/03/10 06:30:05;;;;;;;1.40;1.30;;;;;;;-10.09;43.90;101106.53;5057390;28;20469;-85
2022/03/10 06:32:32;;;;;;;1.45;1.35;;;;;;;-10.06;43.71;101092.50;5039920;28;20045;-84
2022/03/10 06:35:01;;;;;;;1.38;1.27;;;;;;;-10.00;43.63;101102.72;5032458;28;20060;-85
2022/03/10 06:37:29;;;;;;;1.50;1.40;;;;;;;-9.96;43.53;101092.97;5027248;28;20091;-85
2022/03/10 06:39:56;;;;;;;1.10;1.10;;;;;;;-9.91;43.26;101104.94;5019727;28;20053;-87
2022/03/10 06:42:23;;;;;;;1.55;1.45;;;;;;;-9.80;43.17;101099.25;5011815;28;20107;-85
2022/03/10 06:44:51;;;;;;;1.50;1.40;;;;;;;-9.72;43.10;101102.41;5038357;28;20050;-84
2022/03/10 06:47:18;;;;;;;1.60;1.50;;;;;;;-9.60;42.76;101106.25;5037028;28;20053;-84
2022/03/10 06:49:45;;;;;;;1.00;1.00;;;;;;;-9.57;42.49;101105.28;5047274;28;20117;-85
2022/03/10 06:52:19;;;;;;;1.60;1.50;;;;;;;-9.53;42.16;101104.25;5047772;28;20444;-84
2022/03/10 06:54:46;;;;;;;1.60;1.50;;;;;;;-9.57;41.74;101103.50;5030360;28;20120;-84
2022/03/10 06:57:17;;;;;;;1.50;1.40;;;;;;;-9.48;41.79;101107.53;5042643;28;20055;-85
2022/03/10 06:59:44;;;;;;;1.08;1.08;;;;;;;-9.42;41.52;101100.28;5038028;28;20044;-91
2022/03/10 07:02:11;;;;;;;1.50;1.40;;;;;;;-9.24;42.07;101105.59;5034189;28;20131;-83
2022/03/10 07:04:38;;;;;;;1.50;1.40;;;;;;;-9.04;41.91;101115.19;5036569;28;20045;-86
2022/03/10 07:07:05;;;;;;;1.48;1.38;;;;;;;-8.91;41.18;101105.91;5057004;28;20519;-85
2022/03/10 07:09:33;;;;;;;1.40;1.30;;;;;;;-8.87;41.63;101112.69;5030272;28;20057;-86
2022/03/10 07:12:00;;;;;;;1.55;1.45;;;;;;;-8.73;41.47;101115.53;5035652;28;20553;-86
2022/03/10 07:14:27;;;;;;;1.60;1.50;;;;;;;-8.70;40.79;101111.09;5054223;28;20045;-85
2022/03/10 07:16:54;;;;;;;1.40;1.30;;;;;;;-8.64;40.62;101111.63;5054032;28;20073;-85
2022/03/10 07:19:22;;;;;;;1.50;1.40;;;;;;;-8.60;40.32;101107.13;5020335;28;20083;-86
2022/03/10 07:21:49;;;;;;;1.40;1.30;;;;;;;-8.55;40.50;101113.84;5037652;28;20052;-86
2022/03/10 07:24:16;;;;;;;1.60;1.50;;;;;;;-8.47;40.20;101110.88;5020943;28;20049;-87
2022/03/10 07:26:44;;;;;;;1.30;1.20;;;;;;;-8.35;39.54;101115.50;5020321;28;20072;-86
2022/03/10 07:29:11;;;;;;;1.40;1.30;;;;;;;-8.24;39.43;101116.78;5019750;28;20094;-85
2022/03/10 07:31:38;;;;;;;1.38;1.27;;;;;;;-8.14;39.11;101112.78;5037298;28;20098;-85
2022/03/10 07:34:06;;;;;;;1.30;1.20;;;;;;;-8.02;39.26;101117.44;5022798;28;20053;-86
2022/03/10 07:36:33;;;;;;;1.50;1.40;;;;;;;-7.95;38.69;101125.84;5023121;28;20507;-87
2022/03/10 07:39:00;;;;;;;1.35;1.25;;;;;;;-7.95;38.32;101125.84;5055855;28;20059;-87
2022/03/10 07:41:28;;;;;;;1.50;1.40;;;;;;;-7.83;38.67;101121.78;5037987;28;20045;-85
2022/03/10 07:43:56;;;;;;;1.20;1.20;;;;;;;-7.72;38.23;101119.47;5054739;28;20186;-86
2022/03/10 07:46:24;;;;;;;1.40;1.30;;;;;;;-7.51;37.62;101126.28;5022300;28;20044;-86
2022/03/10 07:48:51;;;;;;;1.60;1.50;;;;;;;-7.52;37.79;101115.88;5037650;28;20500;-86
2022/03/10 07:51:19;;;;;;;1.70;1.60;;;;;;;-7.34;38.09;101101.84;5059710;28;20045;-86
2022/03/10 07:53:47;;;;;;;1.60;1.50;;;;;;;-6.99;37.62;101104.38;5006036;28;20049;-85
2022/03/10 07:56:15;;;;;;;1.30;1.20;;;;;;;-6.89;36.98;101104.75;5055041;28;20079;-84
2022/03/10 07:58:42;;;;;;;1.20;1.20;;;;;;;-6.86;36.47;101102.81;5036731;28;20095;-84
2022/03/10 08:01:09;;;;;;;1.60;1.50;;;;;;;-6.66;36.10;101106.16;5019865;28;20102;-84
2022/03/10 08:03:38;;;;;;;1.40;1.30;;;;;;;-6.46;35.94;101100.66;5067564;28;20057;-91
2022/03/10 08:06:07;;;;;;;1.40;1.30;;;;;;;-6.31;35.57;101101.59;5042997;28;20045;-88
2022/03/10 08:08:35;;;;;;;1.40;1.30;;;;;;;-5.95;35.58;101105.72;5023628;28;20700;-87
2022/03/10 08:11:08;;;;;;;1.60;1.50;;;;;;;-5.59;34.76;101108.00;5021902;28;20061;-87
2022/03/10 08:13:35;;;;;;;1.40;1.30;;;;;;;-5.41;34.46;101095.53;5020250;28;20291;-88
2022/03/10 08:16:03;;;;;;;1.38;1.27;;;;;;;-5.13;33.75;101093.88;5002743;28;20558;-83
2022/03/10 08:18:31;;;;;;;1.38;1.27;;;;;;;-4.95;33.79;101100.66;5010485;28;20057;-84
2022/03/10 08:20:59;;;;;;;1.20;1.20;;;;;;;-4.58;33.69;101093.97;5011235;28;20108;-85
2022/03/10 08:23:26;;;;;;;1.50;1.40;;;;;;;-4.27;32.86;101099.94;5007580;28;20416;-87
2022/03/10 08:25:54;;;;;;;1.30;1.20;;;;;;;-4.01;32.49;101100.91;5013137;28;20054;-83
2022/03/10 08:28:22;;;;;;;1.10;1.00;;;;;;;-3.80;32.00;101101.31;4999086;28;20061;-83
2022/03/10 08:30:49;;;;;;;1.40;1.30;;;;;;;-3.62;31.97;101099.25;5013272;28;20069;-83
2022/03/10 08:33:17;;;;;;;1.00;1.00;;;;;;;-3.31;31.46;101100.66;5015245;28;20445;-85
2022/03/10 08:35:44;;;;;;;1.00;1.00;;;;;;;-3.44;31.79;101080.44;4974541;28;20054;-84
2022/03/10 08:38:16;;;;;;;1.00;1.00;;;;;;;-2.86;31.57;101097.59;4998386;28;20104;-84
2022/03/10 08:40:43;;;;;;;0.93;0.93;;;;;;;-2.71;31.00;101112.41;5010242;28;20093;-82
2022/03/10 08:43:12;;;;;;;0.80;0.80;;;;;;;-2.42;30.34;101096.28;4999185;28;20066;-83
2022/03/10 08:45:40;;;;;;;1.33;1.23;;;;;;;-2.33;30.01;101111.50;5008505;28;20054;-83
2022/03/10 08:48:08;;;;;;;1.10;1.10;;;;;;;-2.47;29.93;101101.88;5008326;28;20046;-84
2022/03/10 08:50:35;;;;;;;1.13;1.13;;;;;;;-2.13;29.98;101096.81;5015724;28;20056;-82
2022/03/10 08:53:03;;;;;;;0.90;0.90;;;;;;;-1.90;29.74;101097.78;5006159;28;20520;-85
2022/03/10 08:55:33;;;;;;;0.88;0.88;;;;;;;-1.90;29.46;101096.91;4974355;28;20547;-85
2022/03/10 08:58:02;;;;;;;1.02;1.02;;;;;;;-1.51;29.55;101079.88;5023639;28;20411;-86
2022/03/10 09:00:29;;;;;;;1.08;1.08;;;;;;;-1.03;28.78;101084.19;4994818;28;20060;-84
2022/03/10 09:02:57;;;;;;;0.93;0.93;;;;;;;-0.69;28.26;101090.34;5003638;28;20124;-86
2022/03/10 09:05:25;;;;;;;1.02;1.02;;;;;;;-0.76;27.52;101086.50;5007478;28;20042;-84
2022/03/10 09:07:53;;;;;;;1.30;1.20;;;;;;;-0.85;28.06;101084.56;5008988;28;20116;-81
2022/03/10 09:10:20;;;;;;;1.00;1.00;;;;;;;-0.43;28.06;101083.00;4997945;28;20042;-86
2022/03/10 09:12:47;;;;;;;0.95;0.95;;;;;;;-0.28;27.46;101095.03;5037758;28;20111;-84
2022/03/10 09:15:17;;;;;;;0.90;0.90;;;;;;;-0.14;26.83;101090.41;5049284;28;20041;-85
2022/03/10 09:17:44;;;;;;;0.98;0.98;;;;;;;-0.11;27.03;101091.00;5037237;28;20484;-83
2022/03/10 09:20:13;;;;;;;0.95;0.95;;;;;;;0.06;26.83;101091.47;5039622;28;20056;-84
2022/03/10 09:22:42;;;;;;;1.00;1.00;;;;;;;0.16;26.56;101087.06;5044920;28;20455;-82
2022/03/10 09:25:09;;;;;;;1.05;1.05;;;;;;;0.32;26.45;101079.50;5014652;28;20045;-83
2022/03/10 09:27:40;;;;;;;1.20;1.20;;;;;;;-0.14;25.66;101080.63;5030056;28;20103;-84
2022/03/10 09:30:10;;;;;;;1.33;1.23;;;;;;;0.02;26.46;101074.06;5032208;28;20080;-83
2022/03/10 09:32:39;;;;;;;0.93;0.93;;;;;;;0.32;26.08;101082.16;5041505;28;20080;-84
2022/03/10 09:35:11;;;;;;;1.40;1.30;;;;;;;0.74;25.95;101079.53;5028705;28;20407;-83
2022/03/10 09:37:39;;;;;;;1.25;1.20;;;;;;;1.30;25.15;101078.31;5051162;28;20147;-84
2022/03/10 09:40:08;;;;;;;1.30;1.20;;;;;;;1.60;25.25;101072.09;5055720;28;20094;-85
2022/03/10 09:42:36;;;;;;;1.40;1.30;;;;;;;1.48;24.51;101073.19;5027248;28;20045;-82
2022/03/10 09:45:09;;;;;;;1.40;1.30;;;;;;;1.26;24.67;101069.72;4992893;28;20052;-84
2022/03/10 09:47:37;;;;;;;1.40;1.30;;;;;;;1.26;24.03;101082.19;5026781;28;20053;-84
2022/03/10 09:50:10;;;;;;;1.30;1.20;;;;;;;1.22;24.65;101080.78;5017295;28;20604;-86
2022/03/10 09:52:38;;;;;;;1.23;1.20;;;;;;;1.65;24.56;101082.34;5044588;28;20052;-84
2022/03/10 09:55:06;;;;;;;1.00;1.00;;;;;;;2.00;24.49;101083.66;5029814;28;20076;-83
2022/03/10 09:57:37;;;;;;;1.50;1.40;;;;;;;2.30;23.95;101072.06;5025143;28;20103;-84
2022/03/10 10:00:06;;;;;;;1.30;1.20;;;;;;;2.45;23.40;101075.13;5015780;28;20140;-83
2022/03/10 10:02:34;;;;;;;1.30;1.20;;;;;;;2.62;23.35;101074.44;5023308;28;20047;-85
2022/03/10 10:05:03;;;;;;;1.35;1.25;;;;;;;2.87;23.60;101059.66;5051563;28;20151;-83
2022/03/10 10:07:31;;;;;;;1.42;1.33;;;;;;;2.99;22.97;101074.50;5019124;28;20056;-85
2022/03/10 10:09:58;;;;;;;1.35;1.25;;;;;;;3.24;23.38;101073.00;5021271;28;20064;-85
2022/03/10 10:12:27;;;;;;;1.38;1.27;;;;;;;3.46;22.85;101070.94;5057559;28;20045;-84
2022/03/10 10:14:56;;;;;;;1.30;1.20;;;;;;;3.51;22.25;101065.16;5035278;28;20049;-88
2022/03/10 10:17:30;;;;;;;1.50;1.40;;;;;;;3.18;22.17;101062.06;5001421;28;20049;-87
2022/03/10 10:20:13;;;;;;;1.38;1.27;;;;;;;3.37;22.84;101067.34;5046563;28;20055;-86
2022/03/10 10:22:40;;;;;;;1.40;1.30;;;;;;;3.87;22.50;101058.91;5046879;28;20090;-88
2022/03/10 10:25:19;;;;;;;1.40;1.30;;;;;;;3.42;22.26;101046.38;5040974;28;20052;-85
2022/03/10 10:27:48;;;;;;;1.40;1.30;;;;;;;3.34;22.01;101048.09;5010808;28;20201;-85
2022/03/10 10:30:16;;;;;;;1.30;1.20;;;;;;;3.77;22.31;101035.91;5012454;28;20045;-83
2022/03/10 10:32:56;;;;;;;1.30;1.20;;;;;;;3.82;22.25;101047.84;5036386;28;20499;-91
2022/03/10 10:35:27;;;;;;;1.50;1.40;;;;;;;4.23;21.49;101037.56;5016991;28;20052;-83
2022/03/10 10:37:56;;;;;;;1.40;1.30;;;;;;;4.25;20.69;101045.41;5027686;28;20053;-87
2022/03/10 10:40:34;;;;;;;1.50;1.40;;;;;;;4.29;21.19;101044.94;5051201;28;20075;-86
2022/03/10 10:43:03;;;;;;;1.40;1.30;;;;;;;4.59;21.42;101053.53;5022020;28;20096;-84
2022/03/10 10:45:33;;;;;;;1.40;1.30;;;;;;;4.82;21.32;101047.69;5034237;28;20176;-83
2022/03/10 10:48:11;;;;;;;1.30;1.20;;;;;;;5.05;20.47;101053.34;5015420;28;20316;-84
2022/03/10 10:50:46;;;;;;;1.50;1.40;;;;;;;4.87;20.46;101056.09;5001210;28;20045;-83
2022/03/10 10:53:30;;;;;;;1.40;1.30;;;;;;;5.08;20.48;101051.19;5034471;28;20058;-84
2022/03/10 10:56:04;;;;;;;1.40;1.30;;;;;;;5.12;21.17;101049.88;5032290;28;20046;-83
2022/03/10 10:58:31;;;;;;;1.40;1.30;;;;;;;4.95;20.43;101053.47;5034057;28;20057;-82
2022/03/10 11:00:58;;;;;;;1.30;1.20;;;;;;;5.28;20.73;101048.28;5033085;28;20061;-83
2022/03/10 11:03:35;;;;;;;1.38;1.27;;;;;;;5.36;20.53;101053.66;5016151;28;20049;-84
2022/03/10 11:06:03;;;;;;;1.40;1.30;;;;;;;5.19;20.55;101052.75;5032945;28;20419;-83
2022/03/10 11:08:30;;;;;;;1.40;1.30;;;;;;;5.31;20.14;101053.31;5015203;28;20057;-84
2022/03/10 11:10:59;;;;;;;1.38;1.27;;;;;;;5.18;20.41;101035.84;5014796;28;20511;-84
2022/03/10 11:13:28;;;;;;;1.40;1.30;;;;;;;5.08;20.10;101053.88;5040937;28;20499;-90
2022/03/10 11:15:55;;;;;;;1.27;1.20;;;;;;;5.27;19.79;101054.66;5019867;28;20049;-83
2022/03/10 11:18:23;;;;;;;1.30;1.20;;;;;;;5.35;20.03;101043.97;5043898;28;20045;-83
2022/03/10 11:20:59;;;;;;;1.40;1.30;;;;;;;5.22;20.35;101050.59;5047238;28;20529;-83
2022/03/10 11:23:38;;;;;;;1.40;1.30;;;;;;;5.52;20.79;101051.06;5014736;28;20052;-84
2022/03/10 11:26:20;;;;;;;1.30;1.20;;;;;;;5.97;20.10;101052.56;5016331;28;20045;-84
2022/03/10 11:28:49;;;;;;;1.40;1.30;;;;;;;6.06;19.85;101035.50;5022083;28;20088;-83
2022/03/10 11:31:17;;;;;;;1.38;1.27;;;;;;;6.42;19.41;101040.53;5022900;28;20046;-83
2022/03/10 11:33:50;;;;;;;1.30;1.20;;;;;;;6.04;19.36;101045.53;5042182;28;20053;-83